地図

経路データ

SID SEASON NUMBER BASIN SUBBASIN NAME ISO_TIME NATURE LAT LON WMO_WIND WMO_PRES WMO_AGENCY TRACK_TYPE DIST2LAND LANDFALL IFLAG USA_AGENCY USA_ATCF_ID USA_LAT USA_LON USA_RECORD USA_STATUS USA_WIND USA_PRES USA_SSHS USA_R34_NE USA_R34_SE USA_R34_SW USA_R34_NW USA_R50_NE USA_R50_SE USA_R50_SW USA_R50_NW USA_R64_NE USA_R64_SE USA_R64_SW USA_R64_NW USA_POCI USA_ROCI USA_RMW USA_EYE TOKYO_LAT TOKYO_LON TOKYO_GRADE TOKYO_WIND TOKYO_PRES TOKYO_R50_DIR TOKYO_R50_LONG TOKYO_R50_SHORT TOKYO_R30_DIR TOKYO_R30_LONG TOKYO_R30_SHORT TOKYO_LAND CMA_LAT CMA_LON CMA_CAT CMA_WIND CMA_PRES HKO_LAT HKO_LON HKO_CAT HKO_WIND HKO_PRES NEWDELHI_LAT NEWDELHI_LON NEWDELHI_GRADE NEWDELHI_WIND NEWDELHI_PRES NEWDELHI_CI NEWDELHI_DP NEWDELHI_POCI REUNION_LAT REUNION_LON REUNION_TYPE REUNION_WIND REUNION_PRES REUNION_TNUM REUNION_CI REUNION_RMW REUNION_R34_NE REUNION_R34_SE REUNION_R34_SW REUNION_R34_NW REUNION_R50_NE REUNION_R50_SE REUNION_R50_SW REUNION_R50_NW REUNION_R64_NE REUNION_R64_SE REUNION_R64_SW REUNION_R64_NW BOM_LAT BOM_LON BOM_TYPE BOM_WIND BOM_PRES BOM_TNUM BOM_CI BOM_RMW BOM_R34_NE BOM_R34_SE BOM_R34_SW BOM_R34_NW BOM_R50_NE BOM_R50_SE BOM_R50_SW BOM_R50_NW BOM_R64_NE BOM_R64_SE BOM_R64_SW BOM_R64_NW BOM_ROCI BOM_POCI BOM_EYE BOM_POS_METHOD BOM_PRES_METHOD NADI_LAT NADI_LON NADI_CAT NADI_WIND NADI_PRES WELLINGTON_LAT WELLINGTON_LON WELLINGTON_WIND WELLINGTON_PRES DS824_LAT DS824_LON DS824_STAGE DS824_WIND DS824_PRES TD9636_LAT TD9636_LON TD9636_STAGE TD9636_WIND TD9636_PRES TD9635_LAT TD9635_LON TD9635_WIND TD9635_PRES TD9635_ROCI NEUMANN_LAT NEUMANN_LON NEUMANN_CLASS NEUMANN_WIND NEUMANN_PRES MLC_LAT MLC_LON MLC_CLASS MLC_WIND MLC_PRES USA_GUST BOM_GUST BOM_GUST_PER REUNION_GUST REUNION_GUST_PER USA_SEAHGT USA_SEARAD_NE USA_SEARAD_SE USA_SEARAD_SW USA_SEARAD_NW STORM_SPEED STORM_DIR
1886101S11071 1886 7 SI MM NOT_NAMED 1886-04-11 06:00:00 NR -11.2000 71.0000 reunion main 1736 1712 _____O________ -1 -11.2000 71.0000 99 9.90000 5 243
1886101S11071 1886 7 SI MM NOT_NAMED 1886-04-11 09:00:00 NR -11.3230 70.7541 main 1712 1679 _____P________ -1 -11.3230 70.7541 99 5 243
1886101S11071 1886 7 SI MM NOT_NAMED 1886-04-11 12:00:00 NR -11.4472 70.5065 main 1679 1648 _____P________ -1 -11.4472 70.5065 99 6 243
1886101S11071 1886 7 SI MM NOT_NAMED 1886-04-11 15:00:00 NR -11.5742 70.2556 main 1648 1615 _____P________ -1 -11.5742 70.2556 99 6 243
1886101S11071 1886 7 SI MM NOT_NAMED 1886-04-11 18:00:00 NR -11.7053 70.0001 main 1615 1591 _____P________ -1 -11.7053 70.0001 99 6 242
1886101S11071 1886 7 SI MM NOT_NAMED 1886-04-11 21:00:00 NR -11.8419 69.7383 main 1583 1552 _____P________ -1 -11.8419 69.7383 99 6 242
1886101S11071 1886 7 SI MM NOT_NAMED 1886-04-12 00:00:00 NR -11.9857 69.4687 main 1552 1519 _____P________ -1 -11.9857 69.4687 99 6 241
1886101S11071 1886 7 SI MM NOT_NAMED 1886-04-12 03:00:00 NR -12.1379 69.1898 main 1519 1479 _____P________ -1 -12.1379 69.1898 99 6 241
1886101S11071 1886 7 SI MM NOT_NAMED 1886-04-12 06:00:00 NR -12.3000 68.9000 reunion main 1479 1440 _____O________ -1 -12.3000 68.9000 99 9.90000 7 240
1886101S11071 1886 7 SI MM NOT_NAMED 1886-04-12 09:00:00 NR -12.4730 68.5985 main 1440 1407 _____P________ -1 -12.4730 68.5985 99 7 239
1886101S11071 1886 7 SI MM NOT_NAMED 1886-04-12 12:00:00 NR -12.6561 68.2875 main 1400 1368 _____P________ -1 -12.6561 68.2875 99 7 239
1886101S11071 1886 7 SI MM NOT_NAMED 1886-04-12 15:00:00 NR -12.8481 67.9703 main 1368 1328 _____P________ -1 -12.8481 67.9703 99 7 238
1886101S11071 1886 7 SI MM NOT_NAMED 1886-04-12 18:00:00 NR -13.0478 67.6500 main 1320 1281 _____P________ -1 -13.0478 67.6500 99 7 237
1886101S11071 1886 7 SI MM NOT_NAMED 1886-04-12 21:00:00 NR -13.2540 67.3296 main 1274 1234 _____P________ -1 -13.2540 67.3296 99 8 236
1886101S11071 1886 7 SI MM NOT_NAMED 1886-04-13 00:00:00 NR -13.4655 67.0124 main 1234 1195 _____P________ -1 -13.4655 67.0124 99 7 235
1886101S11071 1886 7 SI MM NOT_NAMED 1886-04-13 03:00:00 NR -13.6812 66.7014 main 1195 1156 _____P________ -1 -13.6812 66.7014 99 7 234
1886101S11071 1886 7 SI MM NOT_NAMED 1886-04-13 06:00:00 NR -13.9000 66.4000 reunion main 1156 1116 _____O________ -1 -13.9000 66.4000 99 9.90000 7 233
1886101S11071 1886 7 SI MM NOT_NAMED 1886-04-13 09:00:00 NR -14.1117 66.1053 main 1116 1077 _____P________ -1 -14.1117 66.1053 99 7 233
1886101S11071 1886 7 SI MM NOT_NAMED 1886-04-13 12:00:00 NR -14.3272 65.8175 main 1077 1046 _____P________ -1 -14.3272 65.8175 99 7 232
1886101S11071 1886 7 SI MM NOT_NAMED 1886-04-13 15:00:00 NR -14.5466 65.5377 main 1038 1000 _____P________ -1 -14.5466 65.5377 99 7 230
1886101S11071 1886 7 SI MM NOT_NAMED 1886-04-13 18:00:00 NR -14.7697 65.2671 main 1000 961 _____P________ -1 -14.7697 65.2671 99 7 229
1886101S11071 1886 7 SI MM NOT_NAMED 1886-04-13 21:00:00 NR -14.9967 65.0069 main 961 930 _____P________ -1 -14.9967 65.0069 99 7 227
1886101S11071 1886 7 SI MM NOT_NAMED 1886-04-14 00:00:00 NR -15.2274 64.7582 main 930 891 _____P________ -1 -15.2274 64.7582 99 7 225
1886101S11071 1886 7 SI MM NOT_NAMED 1886-04-14 03:00:00 NR -15.4618 64.5221 main 884 854 _____P________ -1 -15.4618 64.5221 99 6 223
1886101S11071 1886 7 SI MM NOT_NAMED 1886-04-14 06:00:00 NR -15.7000 64.3000 reunion main 854 823 _____O________ -1 -15.7000 64.3000 99 9.90000 6 224
1886101S11071 1886 7 SI MM NOT_NAMED 1886-04-14 09:00:00 NR -15.9138 64.0674 main 823 793 _____P________ -1 -15.9138 64.0674 99 6 225
1886101S11071 1886 7 SI MM NOT_NAMED 1886-04-14 12:00:00 NR -16.1286 63.8467 main 784 763 _____P________ -1 -16.1286 63.8467 99 6 223
1886101S11071 1886 7 SI MM NOT_NAMED 1886-04-14 15:00:00 NR -16.3491 63.6401 main 754 726 _____P________ -1 -16.3491 63.6401 99 6 220
1886101S11071 1886 7 SI MM NOT_NAMED 1886-04-14 18:00:00 NR -16.5800 63.4500 main 726 696 _____P________ -1 -16.5800 63.4500 99 6 216
1886101S11071 1886 7 SI MM NOT_NAMED 1886-04-14 21:00:00 NR -16.8258 63.2787 main 696 660 _____P________ -1 -16.8258 63.2787 99 6 211
1886101S11071 1886 7 SI MM NOT_NAMED 1886-04-15 00:00:00 NR -17.0913 63.1284 main 660 634 _____P________ -1 -17.0913 63.1284 99 6 206
1886101S11071 1886 7 SI MM NOT_NAMED 1886-04-15 03:00:00 NR -17.3811 63.0014 main 634 609 _____P________ -1 -17.3811 63.0014 99 7 200
1886101S11071 1886 7 SI MM NOT_NAMED 1886-04-15 06:00:00 NR -17.7000 62.9000 reunion main 609 579 _____O________ -1 -17.7000 62.9000 99 9.90000 7 195
1886101S11071 1886 7 SI MM NOT_NAMED 1886-04-15 09:00:00 NR -18.0768 62.8079 main 579 551 _____P________ -1 -18.0768 62.8079 99 8 191
1886101S11071 1886 7 SI MM NOT_NAMED 1886-04-15 12:00:00 NR -18.4854 62.7409 main 551 536 _____P________ -1 -18.4854 62.7409 99 9 187
1886101S11071 1886 7 SI MM NOT_NAMED 1886-04-15 15:00:00 NR -18.9168 62.6980 main 536 524 _____P________ -1 -18.9168 62.6980 99 9 184
1886101S11071 1886 7 SI MM NOT_NAMED 1886-04-15 18:00:00 NR -19.3620 62.6777 main 522 514 _____P________ -1 -19.3620 62.6777 99 9 181
1886101S11071 1886 7 SI MM NOT_NAMED 1886-04-15 21:00:00 NR -19.8119 62.6790 main 514 511 _____P________ -1 -19.8119 62.6790 99 9 0
1886101S11071 1886 7 SI MM NOT_NAMED 1886-04-16 00:00:00 NR -20.2575 62.7006 main 510 510 _____P________ -1 -20.2575 62.7006 99 9 177
1886101S11071 1886 7 SI MM NOT_NAMED 1886-04-16 03:00:00 NR -20.6899 62.7414 main 512 512 _____P________ -1 -20.6899 62.7414 99 9 174
1886101S11071 1886 7 SI MM NOT_NAMED 1886-04-16 06:00:00 NR -21.1000 62.8000 reunion main 527 527 _____O________ -1 -21.1000 62.8000 99 9.90000 8 172
1886101S11071 1886 7 SI MM NOT_NAMED 1886-04-16 09:00:00 NR -21.4561 62.8544 main 546 546 _____P________ -1 -21.4561 62.8544 99 7 170
1886101S11071 1886 7 SI MM NOT_NAMED 1886-04-16 12:00:00 NR -21.7935 62.9286 main 555 555 _____P________ -1 -21.7935 62.9286 99 7 167
1886101S11071 1886 7 SI MM NOT_NAMED 1886-04-16 15:00:00 NR -22.1152 63.0211 main 575 575 _____P________ -1 -22.1152 63.0211 99 7 164
1886101S11071 1886 7 SI MM NOT_NAMED 1886-04-16 18:00:00 NR -22.4246 63.1302 main 596 596 _____P________ -1 -22.4246 63.1302 99 6 160
1886101S11071 1886 7 SI MM NOT_NAMED 1886-04-16 21:00:00 NR -22.7246 63.2543 main 628 628 _____P________ -1 -22.7246 63.2543 99 6 158
1886101S11071 1886 7 SI MM NOT_NAMED 1886-04-17 00:00:00 NR -23.0184 63.3918 main 651 651 _____P________ -1 -23.0184 63.3918 99 6 156
1886101S11071 1886 7 SI MM NOT_NAMED 1886-04-17 03:00:00 NR -23.3092 63.5409 main 675 675 _____P________ -1 -23.3092 63.5409 99 6 154
1886101S11071 1886 7 SI MM NOT_NAMED 1886-04-17 06:00:00 NR -23.6000 63.7000 reunion main 708 708 _____O________ -1 -23.6000 63.7000 99 9.90000 7 153
1886101S11071 1886 7 SI MM NOT_NAMED 1886-04-17 09:00:00 NR -23.8934 63.8676 main 742 742 _____P________ -1 -23.8934 63.8676 99 7 152
1886101S11071 1886 7 SI MM NOT_NAMED 1886-04-17 12:00:00 NR -24.1896 64.0427 main 768 768 _____P________ -1 -24.1896 64.0427 99 7 151
1886101S11071 1886 7 SI MM NOT_NAMED 1886-04-17 15:00:00 NR -24.4882 64.2244 main 803 803 _____P________ -1 -24.4882 64.2244 99 7 151
1886101S11071 1886 7 SI MM NOT_NAMED 1886-04-17 18:00:00 NR -24.7885 64.4118 main 838 838 _____P________ -1 -24.7885 64.4118 99 7 150
1886101S11071 1886 7 SI MM NOT_NAMED 1886-04-17 21:00:00 NR -25.0904 64.6040 main 873 873 _____P________ -1 -25.0904 64.6040 99 7 150
1886101S11071 1886 7 SI MM NOT_NAMED 1886-04-18 00:00:00 NR -25.3932 64.8001 main 909 909 _____P________ -1 -25.3932 64.8001 99 7 150
1886101S11071 1886 7 SI MM NOT_NAMED 1886-04-18 03:00:00 NR -25.6965 64.9991 main 945 945 _____P________ -1 -25.6965 64.9991 99 7 149
1886101S11071 1886 7 SI MM NOT_NAMED 1886-04-18 06:00:00 NR -26.0000 65.2000 reunion main 981 _____O________ -1 -26.0000 65.2000 99 9.90000 7 149

IBTrACS Databaseについて

本データベースは、米国NOAAが公開する1842年以降の世界の熱帯低気圧のベストトラックデータアーカイブInternational Best Track Archive for Climate Stewardship (IBTrACS)を、ウェブで閲覧しやすい形式に変換したものです。

最終更新日:2021-10-25